createdAt,value
2014-09-12T00:00:22.510Z,72.85
2014-09-12T00:01:27.184Z,72.63
2014-09-12T00:02:31.889Z,73.26
2014-09-12T00:03:36.876Z,72.63
2014-09-12T00:04:41.549Z,72.37
2014-09-12T00:05:46.239Z,72.87
2014-09-12T00:06:50.929Z,72.51
2014-09-12T00:07:55.914Z,72.25
2014-09-12T00:09:00.589Z,71.97
2014-09-12T00:10:05.279Z,72.08
2014-09-12T00:11:10.249Z,71.64
2014-09-12T00:12:15.236Z,71.9
2014-09-12T00:13:19.925Z,72.47
2014-09-12T00:14:24.615Z,72.9
2014-09-12T00:15:29.305Z,72.71
2014-09-12T00:16:34.587Z,72.27
2014-09-12T00:17:39.559Z,72.62
2014-09-12T00:18:44.248Z,72.21
2014-09-12T00:19:49.235Z,72.69
2014-09-12T00:20:53.909Z,72.65
2014-09-12T00:21:58.895Z,72.32
2014-09-12T00:23:03.866Z,72.39
2014-09-12T00:24:08.556Z,72.03
2014-09-12T00:25:13.542Z,72.05
2014-09-12T00:26:18.216Z,71.69
2014-09-12T00:27:22.921Z,72.38
2014-09-12T00:28:27.610Z,72.69
2014-09-12T00:29:32.285Z,72.25
2014-09-12T00:30:36.974Z,72.73
2014-09-12T00:31:41.648Z,72.81
2014-09-12T00:32:46.338Z,72.94
2014-09-12T00:33:51.309Z,72.28
2014-09-12T00:34:56.295Z,72.75
2014-09-12T00:36:00.985Z,73.24
2014-09-12T00:37:05.658Z,72.82
2014-09-12T00:38:10.348Z,72.81
2014-09-12T00:39:15.038Z,72.33
2014-09-12T00:40:19.713Z,72.39
2014-09-12T00:41:24.401Z,72.4
2014-09-12T00:42:29.387Z,72.07
2014-09-12T00:43:34.062Z,71.9
2014-09-12T00:44:38.751Z,72.72
2014-09-12T00:45:43.440Z,72.21
2014-09-12T00:46:48.115Z,72.62
2014-09-12T00:47:53.101Z,72.7
2014-09-12T00:48:58.088Z,72.82
2014-09-12T00:50:03.058Z,72.43
2014-09-12T00:51:07.748Z,72.33
2014-09-12T00:52:12.438Z,72.26
2014-09-12T00:53:17.127Z,72.71
2014-09-12T00:54:21.817Z,72.54
2014-09-12T00:55:26.507Z,73.09
2014-09-12T00:56:31.180Z,72.35
2014-09-12T00:57:36.166Z,72.13
2014-09-12T00:58:40.841Z,71.95
2014-09-12T00:59:45.530Z,72.05
2014-09-12T01:00:50.219Z,72.03
2014-09-12T01:01:54.894Z,71.82
2014-09-12T01:02:59.583Z,71.42
2014-09-12T01:04:04.273Z,71.62
2014-09-12T01:05:08.947Z,71.85
2014-09-12T01:06:13.637Z,71.53
2014-09-12T01:07:18.326Z,71.95
2014-09-12T01:08:23.297Z,71.86
2014-09-12T01:09:27.986Z,72.11
2014-09-12T01:10:32.660Z,71.93
2014-09-12T01:11:37.647Z,71.69
2014-09-12T01:12:42.337Z,71.4
2014-09-12T01:13:47.010Z,71.74
2014-09-12T01:14:51.700Z,72.23
2014-09-12T01:15:56.687Z,72.46
2014-09-12T01:17:01.360Z,72.36
2014-09-12T01:18:06.347Z,72.31
2014-09-12T01:19:11.037Z,72.54
2014-09-12T01:20:16.007Z,72.27
2014-09-12T01:21:20.009Z,71.69
2014-09-12T01:22:24.996Z,71.4
2014-09-12T01:23:29.670Z,71.78
2014-09-12T01:24:34.359Z,71.88
2014-09-12T01:25:39.033Z,72.45
2014-09-12T01:26:43.723Z,72.48
2014-09-12T01:27:48.412Z,72.25
2014-09-12T01:28:53.398Z,72.26
2014-09-12T01:29:58.072Z,72.65
2014-09-12T01:31:02.762Z,72.94
2014-09-12T01:32:07.437Z,72.46
2014-09-12T01:33:12.422Z,72.04
2014-09-12T01:34:17.408Z,71.99
2014-09-12T01:35:22.083Z,71.98
2014-09-12T01:36:26.772Z,71.91
2014-09-12T01:37:31.462Z,72.11
2014-09-12T01:38:36.136Z,71.61
2014-09-12T01:39:40.826Z,71.85
2014-09-12T01:40:45.499Z,71.94
2014-09-12T01:41:50.189Z,72.31
2014-09-12T01:42:55.207Z,72.19
2014-09-12T01:43:59.896Z,72.2
2014-09-12T01:45:04.570Z,71.91
2014-09-12T01:46:09.557Z,71.89
2014-09-12T01:47:14.231Z,72.1
2014-09-12T01:48:18.920Z,71.76
2014-09-12T01:49:24.204Z,71.93
2014-09-12T01:50:29.174Z,71.6
2014-09-12T01:51:33.864Z,71.7
2014-09-12T01:52:38.538Z,71.58
2014-09-12T01:53:43.228Z,72.1
2014-09-12T01:54:48.511Z,72.16
2014-09-12T01:55:53.200Z,71.51
2014-09-12T01:56:57.874Z,71.44
2014-09-12T01:58:02.862Z,71.54
2014-09-12T01:59:07.535Z,71.09
2014-09-12T02:00:12.240Z,71.16
2014-09-12T02:01:16.914Z,71.52
2014-09-12T02:06:36.503Z,71.86
2014-09-12T02:07:41.192Z,71.66
2014-09-12T02:08:46.163Z,71.64
2014-09-12T02:09:50.852Z,71.12
2014-09-12T02:10:55.526Z,71.23
2014-09-12T02:12:00.216Z,71.54
2014-09-12T02:13:04.891Z,71.89
2014-09-12T02:14:09.580Z,71.83
2014-09-12T02:15:14.253Z,71.98
2014-09-12T02:16:18.942Z,72.45
2014-09-12T02:17:23.914Z,72.31
2014-09-12T02:18:28.603Z,72.63
2014-09-12T02:19:33.293Z,72.37
2014-09-12T02:20:37.967Z,72.48
2014-09-12T02:21:42.657Z,72.27
2014-09-12T02:22:47.627Z,72.54
2014-09-12T02:23:52.317Z,72.28
2014-09-12T02:24:56.991Z,71.82
2014-09-12T02:26:01.680Z,71.31
2014-09-12T02:27:06.354Z,71.33
2014-09-12T02:28:11.341Z,71.27
2014-09-12T02:29:16.014Z,71.91
2014-09-12T02:30:20.704Z,72.18
2014-09-12T02:31:25.675Z,72.67
2014-09-12T02:32:30.661Z,72.03
2014-09-12T02:33:35.335Z,71.67
2014-09-12T02:34:40.025Z,71.57
2014-09-12T02:35:44.715Z,72.06
2014-09-12T02:36:49.403Z,71.89
2014-09-12T02:37:54.078Z,71.91
2014-09-12T02:38:59.064Z,71.76
2014-09-12T02:40:03.738Z,72.03
2014-09-12T02:41:08.725Z,71.83
2014-09-12T02:42:13.414Z,72
2014-09-12T02:43:18.088Z,72.09
2014-09-12T02:44:22.762Z,71.68
2014-09-12T02:45:27.749Z,71.51
2014-09-12T02:46:32.735Z,72.86
2014-09-12T02:47:37.409Z,72.15
2014-09-12T02:48:42.099Z,72.58
2014-09-12T02:49:46.773Z,71.91
2014-09-12T02:50:51.463Z,71.92
2014-09-12T02:51:56.152Z,72.08
2014-09-12T02:53:00.842Z,71.78
2014-09-12T02:54:05.515Z,72.23
2014-09-12T02:55:10.502Z,71.85
2014-09-12T02:56:15.191Z,71.62
2014-09-12T02:57:19.865Z,71.54
2014-09-12T02:58:24.852Z,71.55
2014-09-12T02:59:29.526Z,71.63
2014-09-12T03:00:34.232Z,71.67
2014-09-12T03:01:38.905Z,71.16
2014-09-12T03:02:43.891Z,71.4
2014-09-12T03:03:48.565Z,71.5
2014-09-12T03:04:53.255Z,71.44
2014-09-12T03:05:57.929Z,71.68
2014-09-12T03:07:02.603Z,71.98
2014-09-12T03:08:07.292Z,72.18
2014-09-12T03:09:11.982Z,72.22
2014-09-12T03:10:16.656Z,71.51
2014-09-12T03:11:21.642Z,71.46
2014-09-12T03:12:26.316Z,71.58
2014-09-12T03:13:31.303Z,71.69
2014-09-12T03:14:35.976Z,71.58
2014-09-12T03:15:40.666Z,72.25
2014-09-12T03:16:45.637Z,71.77
2014-09-12T03:17:50.326Z,72.09
2014-09-12T03:18:55.297Z,71.75
2014-09-12T03:19:59.987Z,71.35
2014-09-12T03:21:04.661Z,71.7
2014-09-12T03:22:08.662Z,71.38
2014-09-12T03:23:13.353Z,70.86
2014-09-12T03:24:18.027Z,71.29
2014-09-12T03:25:22.716Z,71.41
2014-09-12T03:26:27.687Z,71.35
2014-09-12T03:27:32.673Z,71.48
2014-09-12T03:28:37.347Z,71.74
2014-09-12T03:29:42.038Z,71.22
2014-09-12T03:30:47.008Z,71.81
2014-09-12T03:31:51.697Z,72.04
2014-09-12T03:32:56.371Z,72.24
2014-09-12T03:34:01.358Z,71.99
2014-09-12T03:35:06.048Z,71.98
2014-09-12T03:36:10.737Z,71.94
2014-09-12T03:37:15.411Z,72.2
2014-09-12T03:38:20.085Z,71.98
2014-09-12T03:39:24.774Z,71.94
2014-09-12T03:40:29.761Z,71.91
2014-09-12T03:41:34.436Z,72.31
2014-09-12T03:42:39.108Z,71.98
2014-09-12T03:43:43.798Z,71.88
2014-09-12T03:44:48.472Z,72.59
2014-09-12T03:45:53.178Z,72.42
2014-09-12T03:46:57.851Z,72.52
2014-09-12T03:48:02.540Z,72.02
2014-09-12T03:49:07.215Z,72.07
2014-09-12T03:50:11.905Z,72.43
2014-09-12T03:51:16.875Z,72.49
2014-09-12T03:52:21.565Z,72.54
2014-09-12T03:53:26.239Z,73.39
2014-09-12T03:54:30.927Z,72.91
2014-09-12T03:55:35.602Z,72.66
2014-09-12T03:56:40.292Z,73.43
2014-09-12T03:57:44.967Z,73.42
2014-09-12T03:58:49.656Z,73.96
2014-09-12T03:59:54.329Z,73.68
2014-09-12T04:00:59.018Z,72.96
2014-09-12T04:02:03.693Z,72.8
2014-09-12T04:03:08.383Z,72.96
2014-09-12T04:04:13.056Z,72.92
2014-09-12T04:05:18.043Z,72.98
2014-09-12T04:06:22.717Z,73.21
2014-09-12T04:07:27.405Z,72.91
2014-09-12T04:08:32.080Z,72.83
2014-09-12T04:09:36.770Z,72.95
2014-09-12T04:10:40.756Z,72.43
2014-09-12T04:11:45.743Z,72.65
2014-09-12T04:12:50.416Z,72.83
2014-09-12T04:13:55.106Z,73.26
2014-09-12T04:14:59.780Z,72.91
2014-09-12T04:16:04.469Z,73.01
2014-09-12T04:17:09.440Z,73.22
2014-09-12T04:18:14.130Z,73.63
2014-09-12T04:19:19.101Z,73.19
2014-09-12T04:20:24.087Z,73.16
2014-09-12T04:21:29.058Z,72.95
2014-09-12T04:22:33.748Z,72.84
2014-09-12T04:23:38.422Z,72.2
2014-09-12T04:24:43.110Z,72.36
2014-09-12T04:25:47.785Z,72.6
2014-09-12T04:26:52.490Z,72.98
2014-09-12T04:27:57.164Z,73.14
2014-09-12T04:29:02.151Z,72.65
2014-09-12T04:30:06.825Z,72.92
2014-09-12T04:31:11.499Z,73.07
2014-09-12T04:32:16.188Z,73.24
2014-09-12T04:33:21.174Z,73.81
2014-09-12T04:34:26.146Z,73.37
2014-09-12T04:35:30.834Z,73.31
2014-09-12T04:36:35.509Z,73.03
2014-09-12T04:37:40.199Z,72.97
2014-09-12T04:38:44.872Z,72.73
2014-09-12T04:39:49.859Z,72.95
2014-09-12T04:40:54.549Z,72.62
2014-09-12T04:41:59.238Z,73.14
2014-09-12T04:43:03.912Z,72.98
2014-09-12T04:44:08.898Z,73.02
2014-09-12T04:45:13.572Z,72.83
2014-09-12T04:46:18.262Z,73.05
2014-09-12T04:47:22.952Z,73.62
2014-09-12T04:48:27.625Z,73.26
2014-09-12T04:49:32.315Z,73.6
2014-09-12T04:50:36.989Z,73.91
2014-09-12T04:51:41.679Z,73.73
2014-09-12T04:52:46.367Z,73.46
2014-09-12T04:53:51.042Z,73.69
2014-09-12T04:54:55.732Z,73.09
2014-09-12T04:56:00.421Z,73.64
2014-09-12T04:57:05.095Z,73.65
2014-09-12T04:58:10.082Z,73.61
2014-09-12T04:59:14.756Z,73.66
2014-09-12T05:00:19.445Z,74.1
2014-09-12T05:01:24.119Z,74.12
2014-09-12T05:02:28.808Z,73.84
2014-09-12T05:03:33.483Z,73.02
2014-09-12T05:04:38.172Z,73.78
2014-09-12T05:05:42.847Z,73.57
2014-09-12T05:06:47.989Z,73.25
2014-09-12T05:07:52.663Z,73.65
2014-09-12T05:08:57.649Z,73.15
2014-09-12T05:10:02.323Z,73.76
2014-09-12T05:11:07.607Z,73.91
2014-09-12T05:12:12.593Z,74.01
2014-09-12T05:13:17.267Z,74.01
2014-09-12T05:14:22.254Z,73.98
2014-09-12T05:15:26.927Z,74.1
2014-09-12T05:16:31.913Z,74.19
2014-09-12T05:17:36.588Z,74.3
2014-09-12T05:18:41.277Z,74.21
2014-09-12T05:19:46.263Z,74.16
2014-09-12T05:20:51.235Z,74.32
2014-09-12T05:21:56.220Z,74.04
2014-09-12T05:23:01.192Z,73.9
2014-09-12T05:24:05.882Z,74.1
2014-09-12T05:25:10.555Z,74.34
2014-09-12T05:26:15.245Z,74.81
2014-09-12T05:27:20.263Z,74.64
2014-09-12T05:28:24.978Z,74.32
2014-09-12T05:29:29.709Z,73.86
2014-09-12T05:30:34.736Z,74.29
2014-09-12T05:31:39.462Z,74.06
2014-09-12T05:32:44.150Z,73.71
2014-09-12T05:33:48.854Z,74.07
2014-09-12T05:34:53.854Z,73.72
2014-09-12T05:35:58.559Z,73.51
2014-09-12T05:37:03.258Z,73.52
2014-09-12T05:38:07.954Z,73.68
2014-09-12T05:39:12.633Z,73.57
2014-09-12T05:40:17.327Z,74.17
2014-09-12T05:41:22.320Z,74.4
2014-09-12T05:42:27.308Z,74.69
2014-09-12T05:43:31.983Z,74.08
2014-09-12T05:44:36.674Z,74.31
2014-09-12T05:45:41.366Z,74.64
2014-09-12T05:46:46.338Z,74.47
2014-09-12T05:47:51.029Z,74.73
2014-09-12T05:48:55.703Z,74.64
2014-09-12T05:50:00.394Z,74.63
2014-09-12T05:51:05.084Z,73.84
2014-09-12T05:52:09.758Z,74.1
2014-09-12T05:53:14.745Z,74.23
2014-09-12T05:54:19.435Z,74.42
2014-09-12T05:55:24.109Z,74.14
2014-09-12T05:56:28.798Z,74.19
2014-09-12T05:57:33.472Z,74.1
2014-09-12T05:58:38.458Z,74.02
2014-09-12T05:59:43.148Z,73.52
2014-09-12T06:00:47.822Z,73.8
2014-09-12T06:01:52.512Z,74.38
2014-09-12T06:02:57.185Z,73.11
2014-09-12T06:04:01.876Z,73.19
2014-09-12T06:05:06.565Z,73.29
2014-09-12T06:06:11.238Z,73.86
2014-09-12T06:07:15.928Z,74.32
2014-09-12T06:08:19.930Z,74.98
2014-09-12T06:09:24.620Z,74.72
2014-09-12T06:10:29.294Z,74.49
2014-09-12T06:11:34.280Z,74.04
2014-09-12T06:12:38.970Z,74.11
2014-09-12T06:13:43.644Z,74.21
2014-09-12T06:14:48.349Z,74.2
2014-09-12T06:15:53.024Z,73.72
2014-09-12T06:16:57.712Z,72.78
2014-09-12T06:18:02.402Z,73.8
2014-09-12T06:19:07.373Z,74.26
2014-09-12T06:20:12.062Z,74.31
2014-09-12T06:21:16.736Z,75.22
2014-09-12T06:22:21.426Z,74.93
2014-09-12T06:23:26.413Z,74.49
2014-09-12T06:24:31.383Z,75.16
2014-09-12T06:25:36.073Z,75.6
2014-09-12T06:26:40.778Z,75.09
2014-09-12T06:27:45.764Z,74.9
2014-09-12T06:28:50.454Z,75.29
2014-09-12T06:29:55.441Z,75.2
2014-09-12T06:31:00.114Z,75.21
2014-09-12T06:32:05.101Z,75
2014-09-12T06:33:09.791Z,74.62
2014-09-12T06:34:14.464Z,75.17
2014-09-12T06:35:19.154Z,75.68
2014-09-12T06:36:23.828Z,75.67
2014-09-12T06:37:28.517Z,75.21
2014-09-12T06:38:33.488Z,74.77
2014-09-12T06:39:38.771Z,74.55
2014-09-12T06:40:43.758Z,75.01
2014-09-12T06:41:48.744Z,74.25
2014-09-12T06:42:53.731Z,74.38
2014-09-12T06:43:58.405Z,74.03
2014-09-12T06:45:03.391Z,73.96
2014-09-12T06:46:08.377Z,74.61
2014-09-12T06:47:13.349Z,74.25
2014-09-12T06:48:18.335Z,74.39
2014-09-12T06:49:23.009Z,74.36
2014-09-12T06:50:27.698Z,74.68
2014-09-12T06:51:32.387Z,74.55
2014-09-12T06:52:37.062Z,74.16
2014-09-12T06:53:41.751Z,74.08
2014-09-12T06:54:46.440Z,74.04
2014-09-12T06:55:51.412Z,74.3
2014-09-12T06:56:56.102Z,74.56
2014-09-12T06:58:01.368Z,74.35
2014-09-12T06:59:06.058Z,74.26
2014-09-12T07:00:10.733Z,73.94
2014-09-12T07:01:15.422Z,73.98
2014-09-12T07:02:20.096Z,74.54
2014-09-12T07:03:24.785Z,74.11
2014-09-12T07:04:29.772Z,74.04
2014-09-12T07:05:34.743Z,75.03
2014-09-12T07:06:39.433Z,74.23
2014-09-12T07:07:44.107Z,73.27
2014-09-12T07:08:49.093Z,73.51
2014-09-12T07:09:53.111Z,73.52
2014-09-12T07:10:57.785Z,74.49
2014-09-12T07:12:02.474Z,73.9
2014-09-12T07:13:07.148Z,73.78
2014-09-12T07:14:11.838Z,74.24
2014-09-12T07:15:16.513Z,74.36
2014-09-12T07:16:21.186Z,74.45
2014-09-12T07:17:25.875Z,74.58
2014-09-12T07:18:30.549Z,73.88
2014-09-12T07:19:35.239Z,74.3
2014-09-12T07:20:39.929Z,74.31
2014-09-12T07:21:44.602Z,74
2014-09-12T07:22:49.589Z,73.95
2014-09-12T07:23:54.263Z,74.69
2014-09-12T07:24:59.248Z,74.09
2014-09-12T07:26:03.923Z,73.9
2014-09-12T07:27:07.925Z,73.82
2014-09-12T07:28:12.599Z,73.84
2014-09-12T07:29:17.882Z,74.06
2014-09-12T07:30:22.556Z,73.92
2014-09-12T07:31:27.543Z,73.72
2014-09-12T07:32:32.217Z,73.39
2014-09-12T07:33:36.906Z,73.51
2014-09-12T07:34:41.595Z,73.41
2014-09-12T07:35:46.582Z,73.02
2014-09-12T07:36:51.256Z,73.76
2014-09-12T07:37:56.243Z,74.04
2014-09-12T07:39:00.917Z,74.82
2014-09-12T07:40:05.903Z,75.15
2014-09-12T07:41:10.593Z,74.82
2014-09-12T07:42:15.267Z,75.19
2014-09-12T07:43:19.942Z,75.53
2014-09-12T07:44:24.927Z,75.4
2014-09-12T07:45:29.898Z,75.03
2014-09-12T07:46:34.587Z,75.26
2014-09-12T07:47:39.261Z,74.17
2014-09-12T07:48:43.952Z,74.3
2014-09-12T07:49:48.625Z,74.85
2014-09-12T07:50:53.314Z,74.01
2014-09-12T07:51:58.300Z,74.52
2014-09-12T07:53:02.975Z,74.9
2014-09-12T07:54:07.962Z,74.42
2014-09-12T07:55:12.635Z,74.32
2014-09-12T07:56:17.325Z,74
2014-09-12T07:57:21.999Z,73.03
2014-09-12T07:58:26.688Z,74
2014-09-12T07:59:31.362Z,74.76
2014-09-12T08:00:36.052Z,74.32
2014-09-12T08:01:40.727Z,74
2014-09-12T08:02:45.713Z,73.92
2014-09-12T08:03:50.386Z,73.67
2014-09-12T08:04:55.373Z,73.4
2014-09-12T08:06:00.047Z,73.28
2014-09-12T08:07:04.720Z,73.77
2014-09-12T08:08:09.410Z,74.28
2014-09-12T08:09:14.381Z,73.67
2014-09-12T08:10:19.071Z,73.52
2014-09-12T08:11:23.745Z,73.67
2014-09-12T08:12:28.731Z,73.96
2014-09-12T08:13:33.405Z,73.99
2014-09-12T08:14:38.094Z,73.86
2014-09-12T08:15:42.768Z,73.52
2014-09-12T08:16:47.458Z,74.22
2014-09-12T08:17:52.133Z,74.13
2014-09-12T08:18:56.822Z,74.02
2014-09-12T08:20:01.527Z,75.24
2014-09-12T08:21:06.497Z,74.81
2014-09-12T08:22:11.186Z,74.43
2014-09-12T08:23:15.861Z,73.76
2014-09-12T08:24:20.535Z,73.74
2014-09-12T08:25:25.224Z,74.23
2014-09-12T08:26:30.195Z,74.02
2014-09-12T08:27:34.885Z,73.93
2014-09-12T08:28:39.574Z,74.17
2014-09-12T08:29:44.248Z,74.51
2014-09-12T08:30:48.922Z,74.48
2014-09-12T08:31:53.910Z,74.05
2014-09-12T08:32:58.583Z,73.46
2014-09-12T08:34:03.272Z,74.67
2014-09-12T08:35:08.243Z,74.39
2014-09-12T08:36:13.230Z,74.46
2014-09-12T08:37:17.904Z,74.37
2014-09-12T08:38:22.593Z,74.34
2014-09-12T08:39:27.267Z,73.87
2014-09-12T08:40:32.253Z,74.43
2014-09-12T08:41:37.240Z,73.41
2014-09-12T08:42:41.914Z,73.36
2014-09-12T08:43:46.603Z,73.85
2014-09-12T08:44:51.277Z,74.05
2014-09-12T08:45:55.967Z,73.97
2014-09-12T08:47:00.656Z,74.1
2014-09-12T08:48:05.330Z,74
2014-09-12T08:49:10.004Z,74.24
2014-09-12T08:50:14.695Z,74.54
2014-09-12T08:51:19.368Z,73.8
2014-09-12T08:52:24.058Z,75.07
2014-09-12T08:53:28.763Z,74.4
2014-09-12T08:54:33.046Z,74.65
2014-09-12T08:55:37.751Z,73.49
2014-09-12T08:56:42.441Z,73.89
2014-09-12T08:57:47.115Z,74.31
2014-09-12T08:58:52.101Z,74.04
2014-09-12T08:59:57.072Z,73.99
2014-09-12T09:01:01.761Z,74.24
2014-09-12T09:02:06.733Z,74.4
2014-09-12T09:03:11.422Z,74.44
2014-09-12T09:04:16.690Z,74.07
2014-09-12T09:05:21.380Z,74.3
2014-09-12T09:06:26.053Z,73.83
2014-09-12T09:07:31.040Z,73.73
2014-09-12T09:08:36.011Z,73.71
2014-09-12T09:09:40.684Z,73.53
2014-09-12T09:10:45.671Z,73.86
2014-09-12T09:11:50.642Z,73.93
2014-09-12T09:12:55.331Z,73.7
2014-09-12T09:14:00.005Z,73.61
2014-09-12T09:15:04.992Z,73.69
2014-09-12T09:16:09.682Z,73.98
2014-09-12T09:17:14.355Z,73.53
2014-09-12T09:18:19.326Z,73.22
2014-09-12T09:19:24.016Z,73.98
2014-09-12T09:20:28.986Z,75.4
2014-09-12T09:21:33.973Z,75.31
2014-09-12T09:22:38.647Z,74.26
2014-09-12T09:23:43.352Z,73.93
2014-09-12T09:24:48.026Z,73.53
2014-09-12T09:25:52.716Z,73.85
2014-09-12T09:26:57.390Z,73.13
2014-09-12T09:28:02.079Z,73.84
2014-09-12T09:29:06.753Z,73.74
2014-09-12T09:30:11.442Z,73.72
2014-09-12T09:31:16.116Z,73.24
2014-09-12T09:32:20.806Z,72.73
2014-09-12T09:33:25.778Z,72.63
2014-09-12T09:34:30.498Z,73.78
2014-09-12T09:35:35.188Z,73.67
2014-09-12T09:36:39.877Z,73.32
2014-09-12T09:37:44.567Z,73.19
2014-09-12T09:38:49.537Z,73.67
2014-09-12T09:39:54.524Z,73.19
2014-09-12T09:40:59.198Z,73.17
2014-09-12T09:42:04.184Z,73.88
2014-09-12T09:43:08.858Z,74.37
2014-09-12T09:44:13.549Z,74.01
2014-09-12T09:45:18.222Z,74.27
2014-09-12T09:46:22.911Z,73.78
2014-09-12T09:47:27.585Z,74.28
2014-09-12T09:48:32.275Z,73.41
2014-09-12T09:49:36.949Z,73.61
2014-09-12T09:50:42.232Z,74.25
2014-09-12T09:51:46.922Z,74.73
2014-09-12T09:52:51.595Z,74.86
2014-09-12T09:53:56.284Z,74.78
2014-09-12T09:55:00.959Z,74.87
2014-09-12T09:56:05.649Z,75.19
2014-09-12T09:57:10.619Z,74.59
2014-09-12T09:58:15.606Z,74.2
2014-09-12T09:59:20.280Z,73.91
2014-09-12T10:00:24.970Z,73.95
2014-09-12T10:01:29.940Z,74.45
2014-09-12T10:02:34.927Z,74.38
2014-09-12T10:03:39.617Z,73.94
2014-09-12T10:04:44.290Z,74.04
2014-09-12T10:05:48.980Z,74.15
2014-09-12T10:06:53.654Z,74.45
2014-09-12T10:07:58.344Z,74.78
2014-09-12T10:09:03.033Z,73.78
2014-09-12T10:10:07.019Z,73.67
2014-09-12T10:11:11.709Z,73.7
2014-09-12T10:12:16.383Z,74.07
2014-09-12T10:13:21.072Z,73.92
2014-09-12T10:14:26.059Z,74.23
2014-09-12T10:15:30.796Z,74.57
2014-09-12T10:16:35.469Z,74.2
2014-09-12T10:17:39.471Z,74.01
2014-09-12T10:18:44.145Z,74.24
2014-09-12T10:19:49.131Z,74.48
2014-09-12T10:20:53.822Z,74.74
2014-09-12T10:21:58.496Z,74.21
2014-09-12T10:23:03.185Z,74.21
2014-09-12T10:24:07.859Z,74.13
2014-09-12T10:25:12.548Z,73.95
2014-09-12T10:26:17.222Z,73.96
2014-09-12T10:27:21.896Z,73.68
2014-09-12T10:28:26.586Z,74.65
2014-09-12T10:29:31.261Z,74.86
2014-09-12T10:30:35.950Z,74.8
2014-09-12T10:31:40.623Z,75.47
2014-09-12T10:32:45.312Z,75.46
2014-09-12T10:33:50.284Z,74.7
2014-09-12T10:34:54.957Z,74.4
2014-09-12T10:35:59.648Z,75.04
2014-09-12T10:37:04.321Z,74.52
2014-09-12T10:38:09.307Z,74.57
2014-09-12T10:39:13.981Z,74.51
2014-09-12T10:40:18.671Z,74.49
2014-09-12T10:41:23.361Z,75.33
2014-09-12T10:42:28.035Z,74.37
2014-09-12T10:43:32.724Z,75.76
2014-09-12T10:44:37.695Z,74.79
2014-09-12T10:45:42.384Z,74.91
2014-09-12T10:46:46.371Z,75.08
2014-09-12T10:47:51.357Z,74.78
2014-09-12T10:48:56.048Z,74.88
2014-09-12T10:50:00.737Z,74.96
2014-09-12T10:51:05.410Z,75.33
2014-09-12T10:52:10.099Z,75.33
2014-09-12T10:53:14.774Z,75.56
2014-09-12T10:54:19.464Z,74.95
2014-09-12T10:55:24.137Z,74.69
2014-09-12T10:56:28.827Z,74.12
2014-09-12T10:57:33.517Z,74.63
2014-09-12T10:58:38.487Z,74.67
2014-09-12T10:59:43.474Z,74.57
2014-09-12T11:00:48.148Z,74.21
2014-09-12T11:01:52.838Z,74.34
2014-09-12T11:02:57.511Z,73.58
2014-09-12T11:04:01.513Z,73.46
2014-09-12T11:05:05.499Z,73.28
2014-09-12T11:06:10.205Z,74.47
2014-09-12T11:07:14.879Z,74.66
2014-09-12T11:08:19.569Z,74.49
2014-09-12T11:09:24.242Z,74.55
2014-09-12T11:10:29.228Z,74.48
2014-09-12T11:11:33.903Z,74.26
2014-09-12T11:12:38.593Z,74.65
2014-09-12T11:13:43.266Z,73.9
2014-09-12T11:14:48.253Z,74.27
2014-09-12T11:15:52.927Z,74.13
2014-09-12T11:16:57.602Z,74.5
2014-09-12T11:18:02.587Z,74.53
2014-09-12T11:19:07.276Z,74.08
2014-09-12T11:20:11.951Z,73.94
2014-09-12T11:21:16.938Z,73.76
2014-09-12T11:22:21.611Z,74.06
2014-09-12T11:23:26.581Z,74.22
2014-09-12T11:24:31.271Z,74.12
2014-09-12T11:25:35.945Z,74.66
2014-09-12T11:26:40.635Z,74.19
2014-09-12T11:27:44.622Z,73.96
2014-09-12T11:28:49.295Z,73.7
2014-09-12T11:29:53.985Z,74.08
2014-09-12T11:30:58.674Z,74.3
2014-09-12T11:32:03.661Z,74.73
2014-09-12T11:33:08.632Z,74.02
2014-09-12T11:34:13.321Z,73.51
2014-09-12T11:35:18.011Z,73.82
2014-09-12T11:36:22.700Z,74.09
2014-09-12T11:37:27.374Z,73.81
2014-09-12T11:38:32.063Z,73.88
2014-09-12T11:39:37.331Z,75.01
2014-09-12T11:40:42.021Z,75.04
2014-09-12T11:41:46.694Z,75.2
2014-09-12T11:42:51.384Z,75
2014-09-12T11:43:56.355Z,74.57
2014-09-12T11:45:01.044Z,74.84
2014-09-12T11:46:05.718Z,74.55
2014-09-12T11:47:10.409Z,74.75
2014-09-12T11:48:15.099Z,74.98
2014-09-12T11:49:19.772Z,75.53
2014-09-12T11:50:24.446Z,75.2
2014-09-12T11:51:29.135Z,75.12
2014-09-12T11:52:33.810Z,75.06
2014-09-12T11:53:38.500Z,75.15
2014-09-12T11:54:43.174Z,75.19
2014-09-12T11:55:47.863Z,75.44
2014-09-12T11:56:52.537Z,75.6
2014-09-12T11:57:57.211Z,74.88
2014-09-12T11:59:02.494Z,74.91
2014-09-12T12:00:07.168Z,74.9
2014-09-12T12:01:12.451Z,74.62
2014-09-12T12:02:17.124Z,74.18
2014-09-12T12:03:21.798Z,74.88
2014-09-12T12:04:26.472Z,74.86
2014-09-12T12:05:31.161Z,75.25
2014-09-12T12:06:36.133Z,75.6
2014-09-12T12:07:40.823Z,74.64
2014-09-12T12:08:45.496Z,74.88
2014-09-12T12:09:50.482Z,75.46
2014-09-12T12:10:55.156Z,75.52
2014-09-12T12:11:59.845Z,75.34
2014-09-12T12:13:04.521Z,75.36
2014-09-12T12:14:09.195Z,75
2014-09-12T12:15:13.931Z,74.93
2014-09-12T12:16:18.621Z,75.36
2014-09-12T12:17:23.295Z,76.16
2014-09-12T12:18:27.984Z,75.46
2014-09-12T12:19:32.658Z,75.61
2014-09-12T12:20:37.332Z,75.56
2014-09-12T12:21:42.021Z,75.67
2014-09-12T12:22:46.992Z,75.32
2014-09-12T12:23:51.682Z,75.52
2014-09-12T12:24:56.356Z,75.74
2014-09-12T12:26:01.343Z,76.12
2014-09-12T12:27:06.017Z,75.61
2014-09-12T12:28:10.706Z,74.69
2014-09-12T12:29:15.677Z,74.69
2014-09-12T12:30:20.366Z,75.7
2014-09-12T12:31:25.056Z,75.3
2014-09-12T12:32:30.027Z,75.46
2014-09-12T12:33:35.013Z,74.98
2014-09-12T12:34:39.687Z,74.5
2014-09-12T12:35:44.360Z,75.37
2014-09-12T12:36:49.049Z,75.69
2014-09-12T12:37:53.723Z,76.75
2014-09-12T12:38:58.413Z,76.28
2014-09-12T12:40:03.087Z,75.38
2014-09-12T12:41:08.075Z,75.46
2014-09-12T12:42:13.046Z,75.82
2014-09-12T12:43:17.735Z,75.68
2014-09-12T12:44:22.409Z,75.55
2014-09-12T12:45:27.692Z,75.1
2014-09-12T12:46:32.366Z,75.56
2014-09-12T12:47:37.056Z,75.63
2014-09-12T12:48:41.730Z,75.04
2014-09-12T12:49:46.732Z,75.24
2014-09-12T12:50:51.703Z,75.08
2014-09-12T12:51:56.987Z,75.38
2014-09-12T12:53:01.692Z,75.53
2014-09-12T12:54:06.366Z,75.27
2014-09-12T12:55:11.352Z,75.2
2014-09-12T12:56:16.323Z,75.08
2014-09-12T12:57:21.012Z,75.44
2014-09-12T12:58:25.685Z,75.27
2014-09-12T12:59:30.375Z,74.78
2014-09-12T13:00:35.049Z,74.72
2014-09-12T13:01:39.738Z,75.09
2014-09-12T13:02:44.412Z,75
2014-09-12T13:03:49.086Z,74.92
2014-09-12T13:04:53.775Z,75.28
2014-09-12T13:05:58.763Z,75.37
2014-09-12T13:07:03.437Z,75.09
2014-09-12T13:08:08.423Z,74.8
2014-09-12T13:09:13.112Z,74.94
2014-09-12T13:10:17.818Z,74.82
2014-09-12T13:11:22.491Z,74.95
2014-09-12T13:12:27.181Z,74.9
2014-09-12T13:13:31.855Z,74.66
2014-09-12T13:14:36.826Z,74.48
2014-09-12T13:15:41.515Z,74.73
2014-09-12T13:16:46.189Z,74.73
2014-09-12T13:17:50.878Z,74.68
2014-09-12T13:18:55.552Z,75.21
2014-09-12T13:20:00.242Z,75.01
2014-09-12T13:21:04.916Z,75.25
2014-09-12T13:22:09.607Z,75.18
2014-09-12T13:23:14.297Z,75.24
2014-09-12T13:24:18.971Z,75.99
2014-09-12T13:25:23.644Z,75.53
2014-09-12T13:26:28.631Z,75.18
2014-09-12T13:27:33.305Z,75.17
2014-09-12T13:28:38.291Z,74.83
2014-09-12T13:29:42.965Z,74.7
2014-09-12T13:30:47.654Z,74.91
2014-09-12T13:31:52.625Z,74.41
2014-09-12T13:32:57.330Z,74.81
2014-09-12T13:34:02.317Z,75.05
2014-09-12T13:35:07.006Z,75.25
2014-09-12T13:36:11.680Z,75.32
2014-09-12T13:37:16.370Z,74.97
2014-09-12T13:38:21.340Z,74.64
2014-09-12T13:39:26.327Z,75.21
2014-09-12T13:40:31.016Z,75.35
2014-09-12T13:41:35.690Z,75.48
2014-09-12T13:42:40.380Z,75.33
2014-09-12T13:43:45.053Z,75.17
2014-09-12T13:44:49.743Z,74.72
2014-09-12T13:45:54.432Z,74.61
2014-09-12T13:46:59.122Z,75.16
2014-09-12T13:48:03.795Z,75.5
2014-09-12T13:49:08.783Z,75.75
2014-09-12T13:50:13.457Z,75.2
2014-09-12T13:51:18.741Z,75.71
2014-09-12T13:52:23.431Z,75.77
2014-09-12T13:53:28.120Z,75.56
2014-09-12T13:54:32.794Z,75.34
2014-09-12T13:55:37.781Z,74.73
2014-09-12T13:56:42.766Z,74.77
2014-09-12T13:57:47.441Z,74.53
2014-09-12T13:58:52.130Z,74.91
2014-09-12T13:59:56.804Z,75.16
2014-09-12T14:01:01.478Z,74.97
2014-09-12T14:02:06.168Z,74.83